sensor_id;sensor_type;location;lat;lon;timestamp;P1;durP1;ratioP1;P2;durP2;ratioP2
7485;SDS011;3784;54.098;9.998;2022-10-20T00:02:12;2.63;;;1.90;;
7485;SDS011;3784;54.098;9.998;2022-10-20T00:04:38;8.00;;;2.03;;
7485;SDS011;3784;54.098;9.998;2022-10-20T00:07:05;3.13;;;2.37;;
7485;SDS011;3784;54.098;9.998;2022-10-20T00:09:31;3.60;;;2.40;;
7485;SDS011;3784;54.098;9.998;2022-10-20T00:11:58;2.40;;;2.20;;
7485;SDS011;3784;54.098;9.998;2022-10-20T00:14:24;3.77;;;2.37;;
7485;SDS011;3784;54.098;9.998;2022-10-20T00:16:51;3.30;;;2.30;;
7485;SDS011;3784;54.098;9.998;2022-10-20T00:19:17;2.40;;;2.20;;
7485;SDS011;3784;54.098;9.998;2022-10-20T00:21:44;3.00;;;2.70;;
7485;SDS011;3784;54.098;9.998;2022-10-20T00:24:10;4.23;;;2.40;;
7485;SDS011;3784;54.098;9.998;2022-10-20T00:26:37;3.10;;;2.40;;
7485;SDS011;3784;54.098;9.998;2022-10-20T00:29:03;3.00;;;2.70;;
7485;SDS011;3784;54.098;9.998;2022-10-20T00:31:30;3.13;;;2.73;;
7485;SDS011;3784;54.098;9.998;2022-10-20T00:33:56;3.00;;;2.70;;
7485;SDS011;3784;54.098;9.998;2022-10-20T00:36:23;3.17;;;2.40;;
7485;SDS011;3784;54.098;9.998;2022-10-20T00:38:50;3.43;;;2.83;;
7485;SDS011;3784;54.098;9.998;2022-10-20T00:41:19;5.03;;;2.57;;
7485;SDS011;3784;54.098;9.998;2022-10-20T00:46:18;3.03;;;2.33;;
7485;SDS011;3784;54.098;9.998;2022-10-20T00:48:48;4.70;;;2.57;;
7485;SDS011;3784;54.098;9.998;2022-10-20T00:51:19;2.63;;;2.43;;
7485;SDS011;3784;54.098;9.998;2022-10-20T00:53:47;5.90;;;2.60;;
7485;SDS011;3784;54.098;9.998;2022-10-20T00:56:16;4.00;;;2.87;;
7485;SDS011;3784;54.098;9.998;2022-10-20T00:58:42;3.17;;;2.40;;
7485;SDS011;3784;54.098;9.998;2022-10-20T01:01:09;6.43;;;2.70;;
7485;SDS011;3784;54.098;9.998;2022-10-20T01:03:44;2.47;;;2.13;;
7485;SDS011;3784;54.098;9.998;2022-10-20T01:06:13;6.07;;;2.67;;
7485;SDS011;3784;54.098;9.998;2022-10-20T01:08:45;2.80;;;2.60;;
7485;SDS011;3784;54.098;9.998;2022-10-20T01:11:18;3.00;;;2.70;;
7485;SDS011;3784;54.098;9.998;2022-10-20T01:16:25;2.80;;;2.47;;
7485;SDS011;3784;54.098;9.998;2022-10-20T01:19:26;4.47;;;2.50;;
7485;SDS011;3784;54.098;9.998;2022-10-20T01:30:09;2.97;;;2.50;;
7485;SDS011;3784;54.098;9.998;2022-10-20T01:40:59;7.33;;;2.90;;
7485;SDS011;3784;54.098;9.998;2022-10-20T01:43:29;3.53;;;2.60;;
7485;SDS011;3784;54.098;9.998;2022-10-20T01:45:57;3.73;;;2.77;;
7485;SDS011;3784;54.098;9.998;2022-10-20T01:48:26;3.97;;;2.90;;
7485;SDS011;3784;54.098;9.998;2022-10-20T01:50:54;3.93;;;2.87;;
7485;SDS011;3784;54.098;9.998;2022-10-20T01:53:21;4.87;;;2.83;;
7485;SDS011;3784;54.098;9.998;2022-10-20T01:55:48;5.27;;;2.63;;
7485;SDS011;3784;54.098;9.998;2022-10-20T02:02:20;3.20;;;2.90;;
7485;SDS011;3784;54.098;9.998;2022-10-20T02:05:02;3.93;;;2.97;;
7485;SDS011;3784;54.098;9.998;2022-10-20T02:07:37;5.23;;;2.83;;
7485;SDS011;3784;54.098;9.998;2022-10-20T02:10:08;3.50;;;2.80;;
7485;SDS011;3784;54.098;9.998;2022-10-20T02:12:40;4.97;;;3.23;;
7485;SDS011;3784;54.098;9.998;2022-10-20T02:15:08;5.83;;;2.83;;
7485;SDS011;3784;54.098;9.998;2022-10-20T02:17:37;3.47;;;2.90;;
7485;SDS011;3784;54.098;9.998;2022-10-20T02:20:05;3.33;;;2.60;;
7485;SDS011;3784;54.098;9.998;2022-10-20T02:22:32;3.67;;;2.80;;
7485;SDS011;3784;54.098;9.998;2022-10-20T02:25:00;4.53;;;2.90;;
7485;SDS011;3784;54.098;9.998;2022-10-20T02:27:28;3.67;;;2.73;;
7485;SDS011;3784;54.098;9.998;2022-10-20T02:29:59;4.47;;;2.80;;
7485;SDS011;3784;54.098;9.998;2022-10-20T02:32:31;4.60;;;2.80;;
7485;SDS011;3784;54.098;9.998;2022-10-20T02:35:02;3.50;;;2.43;;
7485;SDS011;3784;54.098;9.998;2022-10-20T02:37:33;2.90;;;2.47;;
7485;SDS011;3784;54.098;9.998;2022-10-20T02:40:00;2.77;;;2.57;;
7485;SDS011;3784;54.098;9.998;2022-10-20T02:42:27;3.07;;;2.57;;
7485;SDS011;3784;54.098;9.998;2022-10-20T02:44:53;3.87;;;2.63;;
7485;SDS011;3784;54.098;9.998;2022-10-20T02:47:20;2.83;;;2.43;;
7485;SDS011;3784;54.098;9.998;2022-10-20T02:49:47;2.57;;;2.33;;
7485;SDS011;3784;54.098;9.998;2022-10-20T02:52:14;3.40;;;2.40;;
7485;SDS011;3784;54.098;9.998;2022-10-20T02:54:40;2.50;;;2.30;;
7485;SDS011;3784;54.098;9.998;2022-10-20T02:57:07;2.67;;;2.40;;
7485;SDS011;3784;54.098;9.998;2022-10-20T02:59:33;4.17;;;2.43;;
7485;SDS011;3784;54.098;9.998;2022-10-20T03:02:00;3.30;;;2.60;;
7485;SDS011;3784;54.098;9.998;2022-10-20T03:04:26;5.43;;;2.60;;
7485;SDS011;3784;54.098;9.998;2022-10-20T03:06:53;2.53;;;2.33;;
7485;SDS011;3784;54.098;9.998;2022-10-20T03:09:19;4.10;;;2.20;;
7485;SDS011;3784;54.098;9.998;2022-10-20T03:11:46;3.80;;;2.70;;
7485;SDS011;3784;54.098;9.998;2022-10-20T03:14:12;2.70;;;2.50;;
7485;SDS011;3784;54.098;9.998;2022-10-20T03:16:39;3.00;;;2.57;;
7485;SDS011;3784;54.098;9.998;2022-10-20T03:19:05;5.47;;;2.50;;
7485;SDS011;3784;54.098;9.998;2022-10-20T03:21:36;4.23;;;2.50;;
7485;SDS011;3784;54.098;9.998;2022-10-20T03:24:03;3.50;;;2.33;;
7485;SDS011;3784;54.098;9.998;2022-10-20T03:26:29;2.73;;;2.53;;
7485;SDS011;3784;54.098;9.998;2022-10-20T03:28:56;4.10;;;2.70;;
7485;SDS011;3784;54.098;9.998;2022-10-20T03:31:22;2.83;;;2.33;;
7485;SDS011;3784;54.098;9.998;2022-10-20T03:33:49;2.70;;;2.50;;
7485;SDS011;3784;54.098;9.998;2022-10-20T03:36:15;4.70;;;2.30;;
7485;SDS011;3784;54.098;9.998;2022-10-20T03:38:42;4.80;;;2.80;;
7485;SDS011;3784;54.098;9.998;2022-10-20T03:41:08;2.40;;;2.20;;
7485;SDS011;3784;54.098;9.998;2022-10-20T03:43:37;4.67;;;2.70;;
7485;SDS011;3784;54.098;9.998;2022-10-20T03:46:04;3.13;;;2.47;;
7485;SDS011;3784;54.098;9.998;2022-10-20T03:48:33;3.37;;;2.60;;
7485;SDS011;3784;54.098;9.998;2022-10-20T03:51:00;3.70;;;2.40;;
7485;SDS011;3784;54.098;9.998;2022-10-20T03:53:27;5.13;;;2.63;;
7485;SDS011;3784;54.098;9.998;2022-10-20T03:55:54;3.57;;;2.60;;
7485;SDS011;3784;54.098;9.998;2022-10-20T03:58:20;3.93;;;2.70;;
7485;SDS011;3784;54.098;9.998;2022-10-20T04:00:47;4.60;;;2.67;;
7485;SDS011;3784;54.098;9.998;2022-10-20T04:03:14;3.23;;;2.60;;
7485;SDS011;3784;54.098;9.998;2022-10-20T04:05:40;4.73;;;2.60;;
7485;SDS011;3784;54.098;9.998;2022-10-20T04:08:07;3.77;;;2.70;;
7485;SDS011;3784;54.098;9.998;2022-10-20T04:10:33;3.73;;;2.60;;
7485;SDS011;3784;54.098;9.998;2022-10-20T04:13:00;3.53;;;2.80;;
7485;SDS011;3784;54.098;9.998;2022-10-20T04:15:27;4.57;;;2.77;;
7485;SDS011;3784;54.098;9.998;2022-10-20T04:17:54;2.70;;;2.50;;
7485;SDS011;3784;54.098;9.998;2022-10-20T04:20:20;3.00;;;2.70;;
7485;SDS011;3784;54.098;9.998;2022-10-20T04:22:47;3.00;;;2.67;;
7485;SDS011;3784;54.098;9.998;2022-10-20T04:25:13;3.47;;;2.63;;
7485;SDS011;3784;54.098;9.998;2022-10-20T04:27:40;3.17;;;2.60;;
7485;SDS011;3784;54.098;9.998;2022-10-20T04:30:07;3.27;;;2.60;;
7485;SDS011;3784;54.098;9.998;2022-10-20T04:32:34;2.60;;;2.40;;
7485;SDS011;3784;54.098;9.998;2022-10-20T04:35:01;2.63;;;2.30;;
7485;SDS011;3784;54.098;9.998;2022-10-20T04:37:27;3.67;;;2.83;;
7485;SDS011;3784;54.098;9.998;2022-10-20T04:39:54;3.50;;;2.70;;
7485;SDS011;3784;54.098;9.998;2022-10-20T04:42:22;5.30;;;2.67;;
7485;SDS011;3784;54.098;9.998;2022-10-20T04:44:49;2.93;;;2.63;;
7485;SDS011;3784;54.098;9.998;2022-10-20T04:47:15;3.77;;;2.80;;
7485;SDS011;3784;54.098;9.998;2022-10-20T04:49:42;3.80;;;2.70;;
7485;SDS011;3784;54.098;9.998;2022-10-20T04:52:09;4.17;;;2.90;;
7485;SDS011;3784;54.098;9.998;2022-10-20T04:54:36;4.07;;;3.07;;
7485;SDS011;3784;54.098;9.998;2022-10-20T04:57:02;5.57;;;3.13;;
7485;SDS011;3784;54.098;9.998;2022-10-20T04:59:31;5.57;;;2.70;;
7485;SDS011;3784;54.098;9.998;2022-10-20T05:01:57;3.30;;;3.00;;
7485;SDS011;3784;54.098;9.998;2022-10-20T05:04:24;3.37;;;3.03;;
7485;SDS011;3784;54.098;9.998;2022-10-20T05:06:50;5.13;;;2.97;;
7485;SDS011;3784;54.098;9.998;2022-10-20T05:09:17;2.70;;;2.50;;
7485;SDS011;3784;54.098;9.998;2022-10-20T05:11:43;3.00;;;2.70;;
7485;SDS011;3784;54.098;9.998;2022-10-20T05:14:10;5.47;;;2.90;;
7485;SDS011;3784;54.098;9.998;2022-10-20T05:16:36;2.80;;;2.50;;
7485;SDS011;3784;54.098;9.998;2022-10-20T05:19:03;3.33;;;3.00;;
7485;SDS011;3784;54.098;9.998;2022-10-20T05:21:30;3.90;;;2.80;;
7485;SDS011;3784;54.098;9.998;2022-10-20T05:23:58;3.17;;;2.87;;
7485;SDS011;3784;54.098;9.998;2022-10-20T05:26:26;3.60;;;2.80;;
7485;SDS011;3784;54.098;9.998;2022-10-20T05:28:54;5.07;;;3.00;;
7485;SDS011;3784;54.098;9.998;2022-10-20T05:31:21;3.47;;;2.90;;
7485;SDS011;3784;54.098;9.998;2022-10-20T05:33:49;4.17;;;3.20;;
7485;SDS011;3784;54.098;9.998;2022-10-20T05:36:18;4.47;;;3.07;;
7485;SDS011;3784;54.098;9.998;2022-10-20T05:38:47;4.57;;;3.30;;
7485;SDS011;3784;54.098;9.998;2022-10-20T05:41:15;3.43;;;2.77;;
7485;SDS011;3784;54.098;9.998;2022-10-20T05:43:49;4.23;;;3.07;;
7485;SDS011;3784;54.098;9.998;2022-10-20T05:46:17;4.67;;;2.90;;
7485;SDS011;3784;54.098;9.998;2022-10-20T05:48:45;3.53;;;3.07;;
7485;SDS011;3784;54.098;9.998;2022-10-20T05:51:15;3.67;;;3.33;;
7485;SDS011;3784;54.098;9.998;2022-10-20T05:53:43;3.80;;;3.40;;
7485;SDS011;3784;54.098;9.998;2022-10-20T05:56:13;5.47;;;3.97;;
7485;SDS011;3784;54.098;9.998;2022-10-20T05:58:41;4.33;;;3.20;;
7485;SDS011;3784;54.098;9.998;2022-10-20T06:03:35;2.93;;;2.63;;
7485;SDS011;3784;54.098;9.998;2022-10-20T06:06:02;4.43;;;2.90;;
7485;SDS011;3784;54.098;9.998;2022-10-20T06:08:29;4.77;;;3.93;;
7485;SDS011;3784;54.098;9.998;2022-10-20T06:11:01;3.17;;;2.70;;
7485;SDS011;3784;54.098;9.998;2022-10-20T06:13:29;3.90;;;3.60;;
7485;SDS011;3784;54.098;9.998;2022-10-20T06:16:05;4.03;;;3.20;;
7485;SDS011;3784;54.098;9.998;2022-10-20T06:18:33;6.67;;;3.50;;
7485;SDS011;3784;54.098;9.998;2022-10-20T06:21:04;4.00;;;3.07;;
7485;SDS011;3784;54.098;9.998;2022-10-20T06:23:32;6.13;;;2.97;;
7485;SDS011;3784;54.098;9.998;2022-10-20T06:26:00;3.50;;;3.10;;
7485;SDS011;3784;54.098;9.998;2022-10-20T06:28:29;4.13;;;2.90;;
7485;SDS011;3784;54.098;9.998;2022-10-20T06:30:56;5.50;;;3.10;;
7485;SDS011;3784;54.098;9.998;2022-10-20T06:33:23;5.50;;;3.10;;
7485;SDS011;3784;54.098;9.998;2022-10-20T06:35:50;4.33;;;3.20;;
7485;SDS011;3784;54.098;9.998;2022-10-20T06:38:16;5.73;;;3.07;;
7485;SDS011;3784;54.098;9.998;2022-10-20T06:40:43;5.20;;;3.40;;
7485;SDS011;3784;54.098;9.998;2022-10-20T06:43:09;4.70;;;3.03;;
7485;SDS011;3784;54.098;9.998;2022-10-20T06:45:36;5.63;;;3.37;;
7485;SDS011;3784;54.098;9.998;2022-10-20T06:48:02;3.97;;;3.10;;
7485;SDS011;3784;54.098;9.998;2022-10-20T06:50:29;3.93;;;2.90;;
7485;SDS011;3784;54.098;9.998;2022-10-20T06:52:55;3.70;;;3.00;;
7485;SDS011;3784;54.098;9.998;2022-10-20T06:55:22;5.07;;;3.23;;
7485;SDS011;3784;54.098;9.998;2022-10-20T06:57:48;4.47;;;3.27;;
7485;SDS011;3784;54.098;9.998;2022-10-20T07:00:15;4.43;;;3.23;;
7485;SDS011;3784;54.098;9.998;2022-10-20T07:02:42;5.00;;;3.00;;
7485;SDS011;3784;54.098;9.998;2022-10-20T07:05:08;4.07;;;3.03;;
7485;SDS011;3784;54.098;9.998;2022-10-20T07:07:34;4.37;;;3.27;;
7485;SDS011;3784;54.098;9.998;2022-10-20T07:10:01;5.53;;;3.27;;
7485;SDS011;3784;54.098;9.998;2022-10-20T07:12:27;5.00;;;3.50;;
7485;SDS011;3784;54.098;9.998;2022-10-20T07:14:54;6.17;;;3.03;;
7485;SDS011;3784;54.098;9.998;2022-10-20T07:17:20;3.63;;;2.70;;
7485;SDS011;3784;54.098;9.998;2022-10-20T07:19:47;4.67;;;3.57;;
7485;SDS011;3784;54.098;9.998;2022-10-20T07:22:13;5.03;;;3.10;;
7485;SDS011;3784;54.098;9.998;2022-10-20T07:24:40;3.10;;;2.77;;
7485;SDS011;3784;54.098;9.998;2022-10-20T07:27:06;3.70;;;2.60;;
7485;SDS011;3784;54.098;9.998;2022-10-20T07:29:33;5.63;;;3.00;;
7485;SDS011;3784;54.098;9.998;2022-10-20T07:32:04;4.47;;;2.80;;
7485;SDS011;3784;54.098;9.998;2022-10-20T07:34:31;5.43;;;2.60;;
7485;SDS011;3784;54.098;9.998;2022-10-20T07:36:57;6.50;;;2.67;;
7485;SDS011;3784;54.098;9.998;2022-10-20T07:39:24;3.90;;;2.90;;
7485;SDS011;3784;54.098;9.998;2022-10-20T07:41:51;3.23;;;2.50;;
7485;SDS011;3784;54.098;9.998;2022-10-20T07:44:17;6.03;;;2.70;;
7485;SDS011;3784;54.098;9.998;2022-10-20T07:46:44;4.33;;;2.60;;
7485;SDS011;3784;54.098;9.998;2022-10-20T07:49:11;4.40;;;4.00;;
7485;SDS011;3784;54.098;9.998;2022-10-20T07:51:57;5.70;;;2.60;;
7485;SDS011;3784;54.098;9.998;2022-10-20T07:54:24;6.27;;;3.40;;
7485;SDS011;3784;54.098;9.998;2022-10-20T07:56:51;4.30;;;2.83;;
7485;SDS011;3784;54.098;9.998;2022-10-20T07:59:17;4.27;;;2.30;;
7485;SDS011;3784;54.098;9.998;2022-10-20T08:01:44;4.57;;;2.53;;
7485;SDS011;3784;54.098;9.998;2022-10-20T08:04:10;4.07;;;3.03;;
7485;SDS011;3784;54.098;9.998;2022-10-20T08:06:37;3.97;;;3.20;;
7485;SDS011;3784;54.098;9.998;2022-10-20T08:09:04;4.20;;;2.60;;
7485;SDS011;3784;54.098;9.998;2022-10-20T08:11:32;4.93;;;2.80;;
7485;SDS011;3784;54.098;9.998;2022-10-20T08:13:59;4.90;;;3.70;;
7485;SDS011;3784;54.098;9.998;2022-10-20T08:16:26;4.03;;;2.87;;
7485;SDS011;3784;54.098;9.998;2022-10-20T08:18:59;3.27;;;2.37;;
7485;SDS011;3784;54.098;9.998;2022-10-20T08:21:40;5.80;;;3.10;;
7485;SDS011;3784;54.098;9.998;2022-10-20T08:24:06;5.60;;;3.10;;
7485;SDS011;3784;54.098;9.998;2022-10-20T08:26:33;3.33;;;2.97;;
7485;SDS011;3784;54.098;9.998;2022-10-20T08:29:00;5.80;;;2.87;;
7485;SDS011;3784;54.098;9.998;2022-10-20T08:31:27;4.83;;;2.10;;
7485;SDS011;3784;54.098;9.998;2022-10-20T08:33:54;4.23;;;2.63;;
7485;SDS011;3784;54.098;9.998;2022-10-20T08:36:22;3.53;;;2.50;;
7485;SDS011;3784;54.098;9.998;2022-10-20T08:38:49;3.10;;;2.17;;
7485;SDS011;3784;54.098;9.998;2022-10-20T08:41:24;4.20;;;2.40;;
7485;SDS011;3784;54.098;9.998;2022-10-20T08:43:54;3.57;;;2.60;;
7485;SDS011;3784;54.098;9.998;2022-10-20T08:46:23;3.17;;;2.60;;
7485;SDS011;3784;54.098;9.998;2022-10-20T08:48:54;3.50;;;2.13;;
7485;SDS011;3784;54.098;9.998;2022-10-20T08:51:23;3.33;;;2.40;;
7485;SDS011;3784;54.098;9.998;2022-10-20T08:53:55;3.43;;;2.37;;
7485;SDS011;3784;54.098;9.998;2022-10-20T08:56:24;2.83;;;2.30;;
7485;SDS011;3784;54.098;9.998;2022-10-20T08:58:52;9.73;;;2.80;;
7485;SDS011;3784;54.098;9.998;2022-10-20T09:01:20;2.37;;;2.17;;
7485;SDS011;3784;54.098;9.998;2022-10-20T09:03:49;3.00;;;2.30;;
7485;SDS011;3784;54.098;9.998;2022-10-20T09:06:20;4.70;;;2.73;;
7485;SDS011;3784;54.098;9.998;2022-10-20T09:08:46;2.43;;;2.17;;
7485;SDS011;3784;54.098;9.998;2022-10-20T09:11:15;3.00;;;2.20;;
7485;SDS011;3784;54.098;9.998;2022-10-20T09:13:43;3.80;;;2.10;;
7485;SDS011;3784;54.098;9.998;2022-10-20T09:16:26;2.60;;;2.40;;
7485;SDS011;3784;54.098;9.998;2022-10-20T09:19:41;5.10;;;2.43;;
7485;SDS011;3784;54.098;9.998;2022-10-20T09:22:03;2.80;;;2.27;;
7485;SDS011;3784;54.098;9.998;2022-10-20T09:24:30;2.47;;;2.23;;
7485;SDS011;3784;54.098;9.998;2022-10-20T09:27:15;2.97;;;2.20;;
7485;SDS011;3784;54.098;9.998;2022-10-20T09:29:54;3.67;;;2.50;;
7485;SDS011;3784;54.098;9.998;2022-10-20T09:32:32;2.93;;;2.27;;
7485;SDS011;3784;54.098;9.998;2022-10-20T09:35:21;11.00;;;2.40;;
7485;SDS011;3784;54.098;9.998;2022-10-20T09:38:02;5.50;;;2.30;;
7485;SDS011;3784;54.098;9.998;2022-10-20T09:40:31;6.90;;;2.20;;
7485;SDS011;3784;54.098;9.998;2022-10-20T09:43:05;3.40;;;2.33;;
7485;SDS011;3784;54.098;9.998;2022-10-20T09:45:34;3.07;;;2.40;;
7485;SDS011;3784;54.098;9.998;2022-10-20T09:48:05;4.50;;;2.53;;
7485;SDS011;3784;54.098;9.998;2022-10-20T09:50:41;2.83;;;2.20;;
7485;SDS011;3784;54.098;9.998;2022-10-20T09:53:18;3.57;;;2.17;;
7485;SDS011;3784;54.098;9.998;2022-10-20T09:55:47;4.50;;;2.30;;
7485;SDS011;3784;54.098;9.998;2022-10-20T09:58:18;3.33;;;2.10;;
7485;SDS011;3784;54.098;9.998;2022-10-20T10:00:55;3.73;;;2.57;;
7485;SDS011;3784;54.098;9.998;2022-10-20T10:03:27;3.47;;;2.03;;
7485;SDS011;3784;54.098;9.998;2022-10-20T10:05:57;3.37;;;2.27;;
7485;SDS011;3784;54.098;9.998;2022-10-20T10:08:28;4.23;;;2.37;;
7485;SDS011;3784;54.098;9.998;2022-10-20T10:11:14;3.70;;;2.37;;
7485;SDS011;3784;54.098;9.998;2022-10-20T10:13:42;5.00;;;2.70;;
7485;SDS011;3784;54.098;9.998;2022-10-20T10:16:11;4.43;;;2.00;;
7485;SDS011;3784;54.098;9.998;2022-10-20T10:18:43;5.17;;;2.20;;
7485;SDS011;3784;54.098;9.998;2022-10-20T10:21:14;3.13;;;2.30;;
7485;SDS011;3784;54.098;9.998;2022-10-20T10:23:49;2.83;;;1.77;;
7485;SDS011;3784;54.098;9.998;2022-10-20T10:28:59;4.43;;;1.97;;
7485;SDS011;3784;54.098;9.998;2022-10-20T10:31:26;3.93;;;1.97;;
7485;SDS011;3784;54.098;9.998;2022-10-20T10:33:54;4.07;;;2.10;;
7485;SDS011;3784;54.098;9.998;2022-10-20T10:36:30;2.17;;;1.80;;
7485;SDS011;3784;54.098;9.998;2022-10-20T10:39:01;3.40;;;2.17;;
7485;SDS011;3784;54.098;9.998;2022-10-20T10:52:55;2.93;;;1.90;;
7485;SDS011;3784;54.098;9.998;2022-10-20T10:55:25;4.00;;;1.60;;
7485;SDS011;3784;54.098;9.998;2022-10-20T10:58:31;3.83;;;2.13;;
7485;SDS011;3784;54.098;9.998;2022-10-20T11:06:45;2.80;;;1.90;;
7485;SDS011;3784;54.098;9.998;2022-10-20T11:09:34;3.87;;;1.90;;
7485;SDS011;3784;54.098;9.998;2022-10-20T11:20:15;4.80;;;1.90;;
7485;SDS011;3784;54.098;9.998;2022-10-20T11:26:01;3.10;;;1.80;;
7485;SDS011;3784;54.098;9.998;2022-10-20T11:28:41;2.77;;;2.17;;
7485;SDS011;3784;54.098;9.998;2022-10-20T11:34:21;4.07;;;1.90;;
7485;SDS011;3784;54.098;9.998;2022-10-20T11:37:11;3.23;;;2.40;;
7485;SDS011;3784;54.098;9.998;2022-10-20T11:39:41;3.83;;;2.10;;
7485;SDS011;3784;54.098;9.998;2022-10-20T11:45:25;4.40;;;1.93;;
7485;SDS011;3784;54.098;9.998;2022-10-20T11:48:16;2.90;;;1.90;;
7485;SDS011;3784;54.098;9.998;2022-10-20T11:50:58;2.63;;;2.07;;
7485;SDS011;3784;54.098;9.998;2022-10-20T11:56:27;3.33;;;2.40;;
7485;SDS011;3784;54.098;9.998;2022-10-20T11:59:24;4.60;;;2.27;;
7485;SDS011;3784;54.098;9.998;2022-10-20T12:05:52;3.13;;;2.37;;
7485;SDS011;3784;54.098;9.998;2022-10-20T12:08:44;4.87;;;2.30;;
7485;SDS011;3784;54.098;9.998;2022-10-20T12:11:30;5.03;;;2.57;;
7485;SDS011;3784;54.098;9.998;2022-10-20T12:14:05;2.73;;;1.97;;
7485;SDS011;3784;54.098;9.998;2022-10-20T12:19:18;4.00;;;2.13;;
7485;SDS011;3784;54.098;9.998;2022-10-20T12:24:38;4.73;;;2.60;;
7485;SDS011;3784;54.098;9.998;2022-10-20T12:34:47;6.23;;;2.50;;
7485;SDS011;3784;54.098;9.998;2022-10-20T12:37:26;3.40;;;2.20;;
7485;SDS011;3784;54.098;9.998;2022-10-20T12:39:55;3.53;;;2.13;;
7485;SDS011;3784;54.098;9.998;2022-10-20T12:42:30;2.63;;;2.00;;
7485;SDS011;3784;54.098;9.998;2022-10-20T12:45:04;3.33;;;2.00;;
7485;SDS011;3784;54.098;9.998;2022-10-20T12:47:34;4.77;;;2.30;;
7485;SDS011;3784;54.098;9.998;2022-10-20T12:52:34;2.50;;;2.30;;
7485;SDS011;3784;54.098;9.998;2022-10-20T12:55:15;5.00;;;2.20;;
7485;SDS011;3784;54.098;9.998;2022-10-20T12:57:44;5.00;;;2.20;;
7485;SDS011;3784;54.098;9.998;2022-10-20T13:02:45;2.40;;;1.77;;
7485;SDS011;3784;54.098;9.998;2022-10-20T13:23:28;6.80;;;2.30;;
7485;SDS011;3784;54.098;9.998;2022-10-20T13:25:58;2.23;;;1.90;;
7485;SDS011;3784;54.098;9.998;2022-10-20T13:28:51;3.13;;;2.20;;
7485;SDS011;3784;54.098;9.998;2022-10-20T13:31:35;2.33;;;2.13;;
7485;SDS011;3784;54.098;9.998;2022-10-20T13:45:37;3.87;;;2.77;;
7485;SDS011;3784;54.098;9.998;2022-10-20T13:50:56;2.30;;;2.07;;
7485;SDS011;3784;54.098;9.998;2022-10-20T13:53:26;2.97;;;2.33;;
7485;SDS011;3784;54.098;9.998;2022-10-20T13:58:25;3.20;;;2.37;;
7485;SDS011;3784;54.098;9.998;2022-10-20T14:00:56;5.10;;;2.47;;
7485;SDS011;3784;54.098;9.998;2022-10-20T14:03:26;3.63;;;2.40;;
7485;SDS011;3784;54.098;9.998;2022-10-20T14:05:53;2.73;;;2.17;;
7485;SDS011;3784;54.098;9.998;2022-10-20T14:08:20;3.40;;;2.20;;
7485;SDS011;3784;54.098;9.998;2022-10-20T14:10:51;3.57;;;2.30;;
7485;SDS011;3784;54.098;9.998;2022-10-20T14:13:20;4.90;;;2.30;;
7485;SDS011;3784;54.098;9.998;2022-10-20T14:15:51;3.73;;;2.30;;
7485;SDS011;3784;54.098;9.998;2022-10-20T14:18:24;3.73;;;2.60;;
7485;SDS011;3784;54.098;9.998;2022-10-20T14:20:57;4.97;;;2.63;;
7485;SDS011;3784;54.098;9.998;2022-10-20T14:23:25;3.97;;;2.60;;
7485;SDS011;3784;54.098;9.998;2022-10-20T14:25:52;2.70;;;2.40;;
7485;SDS011;3784;54.098;9.998;2022-10-20T14:28:20;3.10;;;2.50;;
7485;SDS011;3784;54.098;9.998;2022-10-20T14:30:47;3.37;;;2.87;;
7485;SDS011;3784;54.098;9.998;2022-10-20T14:33:15;4.57;;;2.70;;
7485;SDS011;3784;54.098;9.998;2022-10-20T14:35:54;2.80;;;2.53;;
7485;SDS011;3784;54.098;9.998;2022-10-20T14:38:23;3.20;;;2.40;;
7485;SDS011;3784;54.098;9.998;2022-10-20T14:40:56;3.83;;;2.53;;
7485;SDS011;3784;54.098;9.998;2022-10-20T14:43:28;4.07;;;2.30;;
7485;SDS011;3784;54.098;9.998;2022-10-20T14:46:00;3.40;;;2.40;;
7485;SDS011;3784;54.098;9.998;2022-10-20T14:48:40;7.17;;;2.83;;
7485;SDS011;3784;54.098;9.998;2022-10-20T14:51:27;5.70;;;3.20;;
7485;SDS011;3784;54.098;9.998;2022-10-20T14:54:15;5.63;;;4.60;;
7485;SDS011;3784;54.098;9.998;2022-10-20T14:56:59;3.73;;;2.57;;
7485;SDS011;3784;54.098;9.998;2022-10-20T14:59:30;4.23;;;2.83;;
7485;SDS011;3784;54.098;9.998;2022-10-20T15:01:59;5.97;;;3.00;;
7485;SDS011;3784;54.098;9.998;2022-10-20T15:04:27;3.03;;;2.57;;
7485;SDS011;3784;54.098;9.998;2022-10-20T15:07:00;4.20;;;2.80;;
7485;SDS011;3784;54.098;9.998;2022-10-20T15:09:50;3.27;;;2.43;;
7485;SDS011;3784;54.098;9.998;2022-10-20T15:12:21;4.33;;;2.80;;
7485;SDS011;3784;54.098;9.998;2022-10-20T15:15:01;6.57;;;2.77;;
7485;SDS011;3784;54.098;9.998;2022-10-20T15:20:40;4.50;;;3.03;;
7485;SDS011;3784;54.098;9.998;2022-10-20T15:23:16;3.20;;;2.87;;
7485;SDS011;3784;54.098;9.998;2022-10-20T15:25:58;3.53;;;3.20;;
7485;SDS011;3784;54.098;9.998;2022-10-20T15:31:03;5.77;;;2.93;;
7485;SDS011;3784;54.098;9.998;2022-10-20T15:33:32;5.37;;;3.30;;
7485;SDS011;3784;54.098;9.998;2022-10-20T15:35:58;3.27;;;2.97;;
7485;SDS011;3784;54.098;9.998;2022-10-20T15:38:26;4.30;;;3.50;;
7485;SDS011;3784;54.098;9.998;2022-10-20T15:40:53;4.23;;;3.10;;
7485;SDS011;3784;54.098;9.998;2022-10-20T15:43:20;4.20;;;3.73;;
7485;SDS011;3784;54.098;9.998;2022-10-20T15:45:48;7.20;;;4.00;;
7485;SDS011;3784;54.098;9.998;2022-10-20T15:48:19;4.23;;;3.50;;
7485;SDS011;3784;54.098;9.998;2022-10-20T15:50:46;5.70;;;4.60;;
7485;SDS011;3784;54.098;9.998;2022-10-20T15:53:13;5.67;;;4.23;;
7485;SDS011;3784;54.098;9.998;2022-10-20T15:55:42;7.87;;;5.50;;
7485;SDS011;3784;54.098;9.998;2022-10-20T15:58:09;6.67;;;4.73;;
7485;SDS011;3784;54.098;9.998;2022-10-20T16:00:36;7.33;;;4.30;;
7485;SDS011;3784;54.098;9.998;2022-10-20T16:03:03;6.27;;;4.33;;
7485;SDS011;3784;54.098;9.998;2022-10-20T16:05:30;4.40;;;3.87;;
7485;SDS011;3784;54.098;9.998;2022-10-20T16:07:57;5.27;;;3.93;;
7485;SDS011;3784;54.098;9.998;2022-10-20T16:10:24;5.83;;;4.63;;
7485;SDS011;3784;54.098;9.998;2022-10-20T16:12:53;7.03;;;5.93;;
7485;SDS011;3784;54.098;9.998;2022-10-20T16:15:20;7.00;;;6.30;;
7485;SDS011;3784;54.098;9.998;2022-10-20T16:17:46;8.30;;;6.73;;
7485;SDS011;3784;54.098;9.998;2022-10-20T16:20:14;10.70;;;7.03;;
7485;SDS011;3784;54.098;9.998;2022-10-20T16:22:40;13.03;;;8.13;;
7485;SDS011;3784;54.098;9.998;2022-10-20T16:25:07;10.67;;;7.00;;
7485;SDS011;3784;54.098;9.998;2022-10-20T16:27:35;6.10;;;5.50;;
7485;SDS011;3784;54.098;9.998;2022-10-20T16:30:02;10.37;;;7.13;;
7485;SDS011;3784;54.098;9.998;2022-10-20T16:32:29;8.40;;;7.50;;
7485;SDS011;3784;54.098;9.998;2022-10-20T16:35:00;11.13;;;7.63;;
7485;SDS011;3784;54.098;9.998;2022-10-20T16:37:28;8.00;;;6.80;;
7485;SDS011;3784;54.098;9.998;2022-10-20T16:39:55;7.17;;;6.03;;
7485;SDS011;3784;54.098;9.998;2022-10-20T16:42:22;8.40;;;6.00;;
7485;SDS011;3784;54.098;9.998;2022-10-20T16:44:48;6.40;;;5.73;;
7485;SDS011;3784;54.098;9.998;2022-10-20T16:47:15;5.37;;;4.87;;
7485;SDS011;3784;54.098;9.998;2022-10-20T16:49:41;5.47;;;4.37;;
7485;SDS011;3784;54.098;9.998;2022-10-20T16:52:08;5.37;;;4.97;;
7485;SDS011;3784;54.098;9.998;2022-10-20T16:54:34;6.90;;;5.00;;
7485;SDS011;3784;54.098;9.998;2022-10-20T16:57:01;6.70;;;5.10;;
7485;SDS011;3784;54.098;9.998;2022-10-20T16:59:28;9.03;;;6.13;;
7485;SDS011;3784;54.098;9.998;2022-10-20T17:01:54;7.63;;;6.83;;
7485;SDS011;3784;54.098;9.998;2022-10-20T17:04:21;9.63;;;5.20;;
7485;SDS011;3784;54.098;9.998;2022-10-20T17:06:49;9.43;;;8.03;;
7485;SDS011;3784;54.098;9.998;2022-10-20T17:09:15;10.10;;;7.47;;
7485;SDS011;3784;54.098;9.998;2022-10-20T17:11:42;11.73;;;7.37;;
7485;SDS011;3784;54.098;9.998;2022-10-20T17:14:08;8.17;;;7.37;;
7485;SDS011;3784;54.098;9.998;2022-10-20T17:16:35;8.10;;;7.30;;
7485;SDS011;3784;54.098;9.998;2022-10-20T17:19:04;6.43;;;5.80;;
7485;SDS011;3784;54.098;9.998;2022-10-20T17:21:31;9.07;;;6.90;;
7485;SDS011;3784;54.098;9.998;2022-10-20T17:23:59;7.83;;;6.60;;
7485;SDS011;3784;54.098;9.998;2022-10-20T17:26:26;8.17;;;6.50;;
7485;SDS011;3784;54.098;9.998;2022-10-20T17:28:59;6.53;;;5.80;;
7485;SDS011;3784;54.098;9.998;2022-10-20T17:31:26;7.80;;;5.73;;
7485;SDS011;3784;54.098;9.998;2022-10-20T17:33:55;6.37;;;4.70;;
7485;SDS011;3784;54.098;9.998;2022-10-20T17:36:23;5.13;;;4.30;;
7485;SDS011;3784;54.098;9.998;2022-10-20T17:38:54;6.10;;;5.47;;
7485;SDS011;3784;54.098;9.998;2022-10-20T17:41:25;6.70;;;6.10;;
7485;SDS011;3784;54.098;9.998;2022-10-20T17:43:52;5.93;;;4.60;;